createdAt,value
2022-11-01T00:01:31.962Z,8.52
2022-11-01T00:04:18.964Z,5.63
2022-11-01T00:07:04.733Z,7.28
2022-11-01T00:09:50.489Z,6.75
2022-11-01T00:12:35.851Z,6.10
2022-11-01T00:15:21.444Z,6.03
2022-11-01T00:18:07.464Z,6.22
2022-11-01T00:20:53.736Z,5.03
2022-11-01T00:23:39.856Z,7.65
2022-11-01T00:26:26.112Z,5.05
2022-11-01T00:29:12.626Z,6.35
2022-11-01T00:31:59.440Z,6.60
2022-11-01T00:34:45.411Z,5.90
2022-11-01T00:37:31.184Z,10.30
2022-11-01T00:40:16.800Z,7.05
2022-11-01T00:43:02.644Z,5.45
2022-11-01T00:45:48.122Z,9.45
2022-11-01T00:48:33.929Z,8.13
2022-11-01T00:51:19.707Z,5.75
2022-11-01T00:54:05.335Z,6.43
2022-11-01T00:56:51.022Z,5.10
2022-11-01T00:59:40.806Z,8.30
2022-11-01T01:02:26.583Z,3.42
2022-11-01T01:05:12.347Z,7.53
2022-11-01T01:07:58.120Z,8.13
2022-11-01T01:10:43.805Z,3.65
2022-11-01T01:13:29.531Z,11.27
2022-11-01T01:16:15.204Z,5.50
2022-11-01T01:19:01.228Z,9.30
2022-11-01T01:21:46.599Z,5.70
2022-11-01T01:24:32.957Z,8.68
2022-11-01T01:27:18.639Z,5.28
2022-11-01T01:30:07.684Z,6.78
2022-11-01T01:32:52.983Z,5.35
2022-11-01T01:35:39.465Z,4.40
2022-11-01T01:38:25.093Z,3.80
2022-11-01T01:41:29.413Z,9.50
2022-11-01T01:44:46.489Z,5.85
2022-11-01T01:47:38.236Z,8.30
2022-11-01T01:50:48.778Z,5.25
2022-11-01T01:53:53.045Z,6.03
2022-11-01T01:59:23.832Z,7.10
2022-11-01T02:02:09.736Z,6.03
2022-11-01T02:04:59.592Z,5.97
2022-11-01T02:07:46.468Z,4.72
2022-11-01T02:10:33.800Z,4.18
2022-11-01T02:13:19.345Z,3.20
2022-11-01T02:16:42.767Z,6.07
2022-11-01T02:19:53.425Z,8.23
2022-11-01T02:23:13.418Z,6.32
2022-11-01T02:26:26.363Z,3.78
2022-11-01T02:29:16.014Z,6.30
2022-11-01T02:32:17.205Z,9.55
2022-11-01T02:35:21.550Z,13.05
2022-11-01T02:38:25.099Z,8.38
2022-11-01T02:41:21.513Z,5.97
2022-11-01T02:44:18.802Z,6.00
2022-11-01T02:47:05.705Z,4.22
2022-11-01T02:49:56.054Z,9.75
2022-11-01T02:52:42.150Z,5.07
2022-11-01T02:55:30.967Z,8.57
2022-11-01T02:58:24.293Z,9.55
2022-11-01T03:01:15.978Z,7.50
2022-11-01T03:04:03.304Z,8.38
2022-11-01T03:06:58.179Z,3.28
2022-11-01T03:09:44.360Z,9.57
2022-11-01T03:12:35.768Z,5.13
2022-11-01T03:15:28.495Z,7.32
2022-11-01T03:18:23.804Z,7.40
2022-11-01T03:21:17.182Z,4.63
2022-11-01T03:27:10.485Z,8.50
2022-11-01T03:30:09.456Z,5.07
2022-11-01T03:32:57.698Z,6.38
2022-11-01T03:35:47.646Z,4.72
2022-11-01T03:38:37.137Z,10.32
2022-11-01T03:41:24.317Z,7.93
2022-11-01T03:44:12.867Z,4.72
2022-11-01T03:46:58.680Z,7.63
2022-11-01T03:49:44.508Z,4.65
2022-11-01T03:52:30.259Z,6.68
2022-11-01T03:55:20.049Z,11.05
2022-11-01T03:58:07.482Z,8.60
2022-11-01T04:00:55.841Z,13.30
2022-11-01T04:03:42.228Z,7.85
2022-11-01T04:06:27.929Z,7.30
2022-11-01T04:09:13.428Z,13.05
2022-11-01T04:11:59.245Z,5.03
2022-11-01T04:15:23.169Z,5.68
2022-11-01T04:18:42.384Z,7.80
2022-11-01T04:21:29.800Z,9.43
2022-11-01T04:24:21.146Z,10.43
2022-11-01T04:27:07.155Z,8.75
2022-11-01T04:29:52.768Z,9.40
2022-11-01T04:32:38.413Z,6.20
2022-11-01T04:35:24.253Z,11.65
2022-11-01T04:38:11.854Z,11.38
2022-11-01T04:40:57.425Z,6.18
2022-11-01T04:43:43.562Z,6.93
2022-11-01T04:46:30.958Z,13.32
2022-11-01T04:49:16.843Z,10.90
2022-11-01T04:52:02.665Z,11.13
2022-11-01T04:54:48.296Z,4.90
2022-11-01T04:57:39.519Z,5.72
2022-11-01T05:00:26.317Z,6.80
2022-11-01T05:03:12.684Z,4.80
2022-11-01T05:05:59.639Z,7.13
2022-11-01T05:08:45.166Z,3.65
2022-11-01T05:11:30.742Z,8.68
2022-11-01T05:14:16.351Z,8.65
2022-11-01T05:17:02.086Z,4.03
2022-11-01T05:19:47.735Z,5.40
2022-11-01T05:22:33.421Z,6.75
2022-11-01T05:25:19.133Z,7.13
2022-11-01T05:28:11.618Z,5.20
2022-11-01T05:30:58.271Z,5.28
2022-11-01T05:33:44.206Z,10.80
2022-11-01T05:36:30.156Z,8.80
2022-11-01T05:39:15.877Z,13.48
2022-11-01T05:42:02.983Z,13.48
2022-11-01T05:44:48.864Z,10.35
2022-11-01T05:47:34.375Z,9.85
2022-11-01T05:50:20.340Z,7.13
2022-11-01T05:53:10.315Z,11.75
2022-11-01T05:55:56.690Z,16.38
2022-11-01T05:58:42.648Z,12.18
2022-11-01T06:01:28.313Z,13.60
2022-11-01T06:04:13.947Z,14.15
2022-11-01T06:06:59.362Z,13.73
2022-11-01T06:09:45.161Z,14.38
2022-11-01T06:12:30.928Z,12.00
2022-11-01T06:15:16.499Z,11.60
2022-11-01T06:18:02.431Z,11.18
2022-11-01T06:20:48.093Z,16.40
2022-11-01T06:23:33.939Z,15.18
2022-11-01T06:26:19.754Z,14.07
2022-11-01T06:29:05.575Z,11.70
2022-11-01T06:31:51.157Z,13.77
2022-11-01T06:34:40.846Z,13.60
2022-11-01T06:37:29.304Z,12.13
2022-11-01T06:40:14.910Z,12.98
2022-11-01T06:43:02.309Z,16.35
2022-11-01T06:45:48.597Z,11.85
2022-11-01T06:48:34.348Z,12.57
2022-11-01T06:51:20.064Z,18.73
2022-11-01T06:54:05.692Z,13.05
2022-11-01T06:56:51.196Z,19.63
2022-11-01T06:59:37.480Z,20.55
2022-11-01T07:02:28.473Z,20.58
2022-11-01T07:05:15.733Z,16.40
2022-11-01T07:08:02.556Z,15.23
2022-11-01T07:10:50.764Z,11.98
2022-11-01T07:13:37.844Z,15.85
2022-11-01T07:16:23.337Z,15.00
2022-11-01T07:19:09.117Z,15.95
2022-11-01T07:21:54.773Z,17.48
2022-11-01T07:24:40.689Z,19.05
2022-11-01T07:27:26.436Z,15.57
2022-11-01T07:30:12.505Z,16.52
2022-11-01T07:33:00.217Z,15.82
2022-11-01T07:35:47.404Z,21.20
2022-11-01T07:38:33.401Z,20.10
2022-11-01T07:41:18.882Z,17.90
2022-11-01T07:44:04.745Z,18.08
2022-11-01T07:46:50.547Z,24.02
2022-11-01T07:49:36.232Z,24.25
2022-11-01T07:52:21.769Z,15.60
2022-11-01T07:55:08.471Z,19.67
2022-11-01T07:57:54.606Z,18.65
2022-11-01T08:00:41.017Z,14.07
2022-11-01T08:03:27.000Z,22.85
2022-11-01T08:06:12.617Z,17.33
2022-11-01T08:08:58.216Z,15.93
2022-11-01T08:11:43.876Z,19.05
2022-11-01T08:14:29.433Z,16.73
2022-11-01T08:17:15.008Z,21.85
2022-11-01T08:20:00.588Z,16.48
2022-11-01T08:25:37.550Z,22.85
2022-11-01T08:28:23.915Z,20.88
2022-11-01T08:31:10.428Z,28.35
2022-11-01T08:33:56.376Z,13.65
2022-11-01T08:36:43.091Z,17.27
2022-11-01T08:39:29.108Z,18.65
2022-11-01T08:42:14.658Z,17.90
2022-11-01T08:45:00.557Z,13.27
2022-11-01T08:47:46.181Z,13.73
2022-11-01T08:50:36.462Z,13.35
2022-11-01T08:53:22.525Z,17.42
2022-11-01T08:56:08.351Z,15.88
2022-11-01T08:58:55.282Z,12.95
2022-11-01T09:01:41.080Z,12.23
2022-11-01T09:04:26.492Z,10.57
2022-11-01T09:07:12.216Z,8.43
2022-11-01T09:09:57.837Z,17.23
2022-11-01T09:12:43.814Z,10.90
2022-11-01T09:15:29.949Z,11.82
2022-11-01T09:18:15.675Z,14.50
2022-11-01T09:21:01.640Z,15.02
2022-11-01T09:23:47.457Z,14.57
2022-11-01T09:26:33.423Z,11.48
2022-11-01T09:29:21.234Z,14.88
2022-11-01T09:32:06.968Z,16.58
2022-11-01T09:34:52.838Z,13.95
2022-11-01T09:37:38.442Z,13.30
2022-11-01T09:40:24.339Z,17.80
2022-11-01T09:43:17.645Z,17.05
2022-11-01T09:46:05.704Z,23.27
2022-11-01T09:48:52.846Z,11.88
2022-11-01T09:51:38.936Z,13.18
2022-11-01T09:54:25.772Z,14.02
2022-11-01T09:57:36.785Z,15.52
2022-11-01T10:00:22.728Z,15.05
2022-11-01T10:03:29.299Z,16.95
2022-11-01T10:06:23.589Z,22.38
2022-11-01T10:09:09.604Z,12.93
2022-11-01T10:11:58.055Z,16.55
2022-11-01T10:14:46.747Z,12.43
2022-11-01T10:17:48.198Z,17.17
2022-11-01T10:20:40.540Z,16.17
2022-11-01T10:23:49.886Z,17.10
2022-11-01T10:26:35.705Z,10.73
2022-11-01T10:29:33.701Z,14.70
2022-11-01T10:32:31.422Z,13.50
2022-11-01T10:35:35.664Z,13.60
2022-11-01T10:41:52.783Z,17.98
2022-11-01T10:47:43.395Z,13.38
2022-11-01T10:50:30.551Z,14.30
2022-11-01T10:53:19.322Z,12.48
2022-11-01T10:56:09.301Z,13.45
2022-11-01T10:59:06.000Z,15.73
2022-11-01T11:01:53.173Z,15.48
2022-11-01T11:04:38.652Z,12.63
2022-11-01T11:07:25.692Z,8.88
2022-11-01T11:10:29.394Z,12.77
2022-11-01T11:13:20.263Z,15.77
2022-11-01T11:16:07.659Z,17.17
2022-11-01T11:19:03.440Z,13.40
2022-11-01T11:21:51.666Z,16.85
2022-11-01T11:24:43.825Z,14.68
2022-11-01T11:27:32.942Z,21.92
2022-11-01T11:30:32.533Z,13.27
2022-11-01T11:33:19.542Z,13.63
2022-11-01T11:36:06.392Z,10.85
2022-11-01T11:38:53.913Z,16.10
2022-11-01T11:41:39.842Z,17.13
2022-11-01T11:44:51.973Z,10.23
2022-11-01T11:47:42.281Z,10.25
2022-11-01T11:50:33.236Z,11.18
2022-11-01T11:53:22.933Z,13.93
2022-11-01T11:56:09.482Z,10.93
2022-11-01T11:58:56.477Z,13.07
2022-11-01T12:01:42.752Z,12.38
2022-11-01T12:04:40.236Z,33.17
2022-11-01T12:07:38.116Z,29.42
2022-11-01T12:10:32.099Z,56.50
2022-11-01T12:13:26.622Z,46.72
2022-11-01T12:16:21.627Z,46.38
2022-11-01T12:19:26.043Z,51.05
2022-11-01T12:22:12.257Z,72.63
2022-11-01T12:25:05.119Z,40.65
2022-11-01T12:27:59.446Z,21.15
2022-11-01T12:30:48.761Z,20.85
2022-11-01T12:33:46.663Z,19.95
2022-11-01T12:36:43.783Z,11.10
2022-11-01T12:39:48.241Z,8.18
2022-11-01T12:43:16.018Z,15.13
2022-11-01T12:46:03.325Z,10.15
2022-11-01T12:49:02.662Z,10.48
2022-11-01T12:51:52.489Z,13.60
2022-11-01T12:54:53.612Z,10.50
2022-11-01T12:57:40.139Z,11.57
2022-11-01T13:00:50.486Z,12.80
2022-11-01T13:03:42.160Z,10.68
2022-11-01T13:06:51.976Z,10.88
2022-11-01T13:10:05.470Z,14.25
2022-11-01T13:12:54.094Z,7.20
2022-11-01T13:15:43.091Z,9.02
2022-11-01T13:18:28.847Z,10.30
2022-11-01T13:21:40.712Z,12.50
2022-11-01T13:24:45.628Z,11.55
2022-11-01T13:27:56.280Z,9.98
2022-11-01T13:30:54.158Z,12.15
2022-11-01T13:33:59.074Z,10.63
2022-11-01T13:37:08.657Z,11.88
2022-11-01T13:40:19.831Z,7.05
2022-11-01T13:43:14.409Z,14.90
2022-11-01T13:46:05.923Z,9.20
2022-11-01T13:48:54.030Z,9.93
2022-11-01T13:51:58.137Z,14.32
2022-11-01T13:55:00.256Z,16.42
2022-11-01T13:57:46.815Z,16.35
2022-11-01T14:00:42.673Z,13.05
2022-11-01T14:03:32.615Z,12.57
2022-11-01T14:09:20.533Z,17.20
2022-11-01T14:12:06.278Z,8.70
2022-11-01T14:14:52.957Z,10.45
2022-11-01T14:17:51.223Z,9.18
2022-11-01T14:20:45.524Z,17.00
2022-11-01T14:23:32.396Z,14.68
2022-11-01T14:26:21.336Z,12.55
2022-11-01T14:29:11.167Z,16.13
2022-11-01T14:31:58.082Z,12.23
2022-11-01T14:34:45.777Z,18.90
2022-11-01T14:37:38.368Z,17.05
2022-11-01T14:40:31.746Z,12.10
2022-11-01T14:43:19.936Z,13.73
2022-11-01T14:46:20.756Z,16.48
2022-11-01T14:49:33.524Z,13.68
2022-11-01T14:52:40.809Z,15.80
2022-11-01T14:55:35.020Z,22.00
2022-11-01T14:58:24.558Z,19.65
2022-11-01T15:01:23.534Z,14.10
2022-11-01T15:04:38.933Z,19.05
2022-11-01T15:07:40.472Z,19.80
2022-11-01T15:10:26.802Z,22.13
2022-11-01T15:13:15.765Z,26.08
2022-11-01T15:16:07.670Z,25.98
2022-11-01T15:19:00.633Z,31.02
2022-11-01T15:21:47.628Z,21.80
2022-11-01T15:24:34.963Z,25.33
2022-11-01T15:27:23.607Z,36.55
2022-11-01T15:30:22.070Z,39.58
2022-11-01T15:33:17.034Z,37.40
2022-11-01T15:36:18.305Z,35.83
2022-11-01T15:39:18.354Z,40.92
2022-11-01T15:42:17.210Z,31.45
2022-11-01T15:45:42.816Z,25.77
2022-11-01T15:48:35.599Z,34.08
2022-11-01T15:51:26.348Z,35.10
2022-11-01T15:55:05.267Z,29.70
2022-11-01T15:57:59.784Z,21.35
2022-11-01T16:00:50.580Z,34.38
2022-11-01T16:03:53.561Z,24.48
2022-11-01T16:06:46.344Z,22.42
2022-11-01T16:09:39.137Z,34.80
2022-11-01T16:12:27.839Z,22.30
2022-11-01T16:15:35.330Z,24.83
2022-11-01T16:18:25.499Z,26.55
2022-11-01T16:21:32.776Z,22.58
2022-11-01T16:24:21.434Z,26.23
2022-11-01T16:27:25.884Z,29.98
2022-11-01T16:30:50.589Z,27.08
2022-11-01T16:33:36.468Z,24.33
2022-11-01T16:36:35.575Z,29.58
2022-11-01T16:39:31.717Z,25.50
2022-11-01T16:42:18.177Z,27.48
2022-11-01T16:45:05.956Z,30.77
2022-11-01T16:47:57.105Z,23.20
2022-11-01T16:50:43.744Z,33.58
2022-11-01T16:53:33.231Z,24.10
2022-11-01T16:56:42.538Z,27.45
2022-11-01T16:59:48.343Z,30.80
2022-11-01T17:02:34.862Z,36.55
2022-11-01T17:05:23.469Z,29.13
2022-11-01T17:08:11.960Z,30.65
2022-11-01T17:10:57.780Z,31.42
2022-11-01T17:13:43.183Z,38.63
2022-11-01T17:16:28.893Z,34.00
2022-11-01T17:19:25.276Z,38.63
2022-11-01T17:22:22.227Z,35.92
2022-11-01T17:25:14.544Z,37.72
2022-11-01T17:28:00.290Z,36.97
2022-11-01T17:30:46.387Z,38.17
2022-11-01T17:33:32.402Z,29.77
2022-11-01T17:36:19.445Z,31.75
2022-11-01T17:39:05.296Z,38.25
2022-11-01T17:41:50.934Z,31.27
2022-11-01T17:44:37.203Z,27.33
2022-11-01T17:47:23.139Z,25.25
2022-11-01T17:50:13.111Z,29.77
2022-11-01T17:52:58.711Z,27.83
2022-11-01T17:55:45.865Z,28.25
2022-11-01T17:58:31.757Z,30.80
2022-11-01T18:01:18.456Z,33.60
2022-11-01T18:04:05.840Z,35.25
2022-11-01T18:06:52.033Z,25.73
2022-11-01T18:09:39.954Z,32.53
2022-11-01T18:12:37.897Z,32.67
2022-11-01T18:15:38.196Z,31.98
2022-11-01T18:18:40.269Z,40.78
2022-11-01T18:21:32.346Z,52.83
2022-11-01T18:24:23.479Z,45.50
2022-11-01T18:27:11.790Z,40.28
2022-11-01T18:29:57.250Z,35.03
2022-11-01T18:33:03.342Z,34.88
2022-11-01T18:36:00.745Z,29.02
2022-11-01T18:38:56.296Z,27.70
2022-11-01T18:41:45.409Z,29.15
2022-11-01T18:44:31.123Z,30.58
2022-11-01T18:47:27.160Z,32.30
2022-11-01T18:50:22.189Z,25.85
2022-11-01T18:53:16.677Z,19.73
2022-11-01T18:56:21.814Z,25.23
2022-11-01T18:59:16.554Z,33.45
2022-11-01T19:02:19.515Z,26.75
2022-11-01T19:05:17.782Z,27.60
2022-11-01T19:08:26.294Z,34.08
2022-11-01T19:11:12.403Z,32.70
2022-11-01T19:13:59.709Z,35.65
2022-11-01T19:16:45.701Z,37.22
2022-11-01T19:19:32.837Z,30.23
2022-11-01T19:22:39.403Z,36.13
2022-11-01T19:25:36.517Z,28.50
2022-11-01T19:28:34.960Z,38.10
2022-11-01T19:31:26.499Z,45.50
2022-11-01T19:34:19.996Z,39.15
2022-11-01T19:37:19.815Z,35.40
2022-11-01T19:40:33.180Z,31.45
2022-11-01T19:43:25.420Z,33.42
2022-11-01T19:46:18.949Z,38.43
2022-11-01T19:52:18.434Z,36.75
2022-11-01T19:55:36.736Z,36.90
2022-11-01T19:58:45.517Z,35.22
2022-11-01T20:01:34.107Z,35.95
2022-11-01T20:04:27.866Z,31.65
2022-11-01T20:07:20.309Z,37.97
2022-11-01T20:10:06.482Z,29.85
2022-11-01T20:12:52.245Z,42.63
2022-11-01T20:15:37.991Z,31.75
2022-11-01T20:18:23.719Z,36.35
2022-11-01T20:21:09.332Z,32.45
2022-11-01T20:23:55.073Z,35.42
2022-11-01T20:26:40.796Z,33.25
2022-11-01T20:29:26.604Z,37.10
2022-11-01T20:32:12.240Z,32.10
2022-11-01T20:34:57.909Z,35.20
2022-11-01T20:37:44.361Z,39.33
2022-11-01T20:40:30.342Z,41.88
2022-11-01T20:43:16.146Z,39.35
2022-11-01T20:46:01.843Z,37.67
2022-11-01T20:48:47.381Z,38.05
2022-11-01T20:51:32.995Z,34.95
2022-11-01T20:54:18.582Z,35.30
2022-11-01T20:57:04.490Z,40.47
2022-11-01T20:59:51.088Z,34.67
2022-11-01T21:02:37.078Z,42.83
2022-11-01T21:05:28.092Z,36.50
2022-11-01T21:08:33.585Z,31.10
2022-11-01T21:11:43.749Z,35.17
2022-11-01T21:14:37.187Z,36.53
2022-11-01T21:17:23.015Z,40.72
2022-11-01T21:20:23.057Z,30.60
2022-11-01T21:23:23.281Z,35.30
2022-11-01T21:26:28.284Z,35.13
2022-11-01T21:29:28.839Z,33.88
2022-11-01T21:32:34.561Z,35.35
2022-11-01T21:35:20.598Z,31.38
2022-11-01T21:38:27.196Z,38.30
2022-11-01T21:41:27.133Z,37.50
2022-11-01T21:44:18.867Z,46.47
2022-11-01T21:47:26.044Z,35.22
2022-11-01T21:50:12.136Z,37.58
2022-11-01T21:52:57.459Z,38.45
2022-11-01T21:55:43.432Z,46.55
2022-11-01T21:58:29.099Z,35.17
2022-11-01T22:01:14.936Z,50.50
2022-11-01T22:04:00.568Z,46.58
2022-11-01T22:06:48.578Z,36.72
2022-11-01T22:09:34.599Z,43.58
2022-11-01T22:12:20.356Z,41.75
2022-11-01T22:15:06.555Z,43.40
2022-11-01T22:17:52.031Z,40.55
2022-11-01T22:20:37.937Z,38.20
2022-11-01T22:23:23.387Z,35.55
2022-11-01T22:26:09.015Z,42.10
2022-11-01T22:28:54.630Z,35.28
2022-11-01T22:31:40.376Z,40.90
2022-11-01T22:34:26.125Z,43.72
2022-11-01T22:37:14.979Z,41.20
2022-11-01T22:40:02.425Z,43.17
2022-11-01T22:42:52.102Z,47.47
2022-11-01T22:45:40.576Z,41.20
2022-11-01T22:48:26.501Z,39.80
2022-11-01T22:51:26.780Z,41.38
2022-11-01T22:54:27.489Z,50.47
2022-11-01T22:57:18.981Z,48.58
2022-11-01T23:00:27.963Z,43.92
2022-11-01T23:03:35.296Z,43.63
2022-11-01T23:06:21.272Z,50.20
2022-11-01T23:09:16.242Z,42.88
2022-11-01T23:12:20.577Z,49.47
2022-11-01T23:15:06.455Z,47.65
2022-11-01T23:17:52.235Z,43.97
2022-11-01T23:20:42.917Z,41.45
2022-11-01T23:23:29.183Z,41.75
2022-11-01T23:26:17.680Z,43.58
2022-11-01T23:29:03.361Z,39.17
2022-11-01T23:31:48.897Z,51.28
2022-11-01T23:34:34.781Z,51.30
2022-11-01T23:37:21.828Z,49.63
2022-11-01T23:40:18.092Z,49.03
2022-11-01T23:43:05.895Z,41.35
2022-11-01T23:45:52.595Z,50.05
2022-11-01T23:48:43.138Z,39.28
2022-11-01T23:51:31.390Z,40.35
2022-11-01T23:54:34.124Z,36.65
2022-11-01T23:57:23.229Z,39.50
